sensor_id;sensor_type;location;lat;lon;timestamp;temperature;humidity
48744;DHT22;34538;48.836;9.174;2022-12-18T00:02:03;-8.80;99.90
48744;DHT22;34538;48.836;9.174;2022-12-18T00:04:30;-8.80;99.90
48744;DHT22;34538;48.836;9.174;2022-12-18T00:06:58;-8.80;99.90
48744;DHT22;34538;48.836;9.174;2022-12-18T00:09:25;-8.80;99.90
48744;DHT22;34538;48.836;9.174;2022-12-18T00:11:52;-8.80;99.90
48744;DHT22;34538;48.836;9.174;2022-12-18T00:14:19;-8.80;99.90
48744;DHT22;34538;48.836;9.174;2022-12-18T00:16:46;-8.90;99.90
48744;DHT22;34538;48.836;9.174;2022-12-18T00:19:14;-8.90;99.90
48744;DHT22;34538;48.836;9.174;2022-12-18T00:21:43;-8.90;99.90
48744;DHT22;34538;48.836;9.174;2022-12-18T00:24:11;-8.90;99.90
48744;DHT22;34538;48.836;9.174;2022-12-18T00:26:39;-8.90;99.90
48744;DHT22;34538;48.836;9.174;2022-12-18T00:29:09;-9.00;99.90
48744;DHT22;34538;48.836;9.174;2022-12-18T00:31:36;-9.00;99.90
48744;DHT22;34538;48.836;9.174;2022-12-18T00:34:03;-9.00;99.90
48744;DHT22;34538;48.836;9.174;2022-12-18T00:36:32;-9.00;99.90
48744;DHT22;34538;48.836;9.174;2022-12-18T00:39:02;-9.10;99.90
48744;DHT22;34538;48.836;9.174;2022-12-18T00:41:30;-9.00;99.90
48744;DHT22;34538;48.836;9.174;2022-12-18T00:44:16;-9.10;99.90
48744;DHT22;34538;48.836;9.174;2022-12-18T00:46:45;-9.00;99.90
48744;DHT22;34538;48.836;9.174;2022-12-18T00:49:12;-9.10;99.90
48744;DHT22;34538;48.836;9.174;2022-12-18T00:51:39;-9.10;99.90
48744;DHT22;34538;48.836;9.174;2022-12-18T00:54:07;-9.10;99.90
48744;DHT22;34538;48.836;9.174;2022-12-18T00:56:36;-9.20;99.90
48744;DHT22;34538;48.836;9.174;2022-12-18T00:59:04;-9.20;99.90
48744;DHT22;34538;48.836;9.174;2022-12-18T01:01:31;-9.30;99.90
48744;DHT22;34538;48.836;9.174;2022-12-18T01:04:00;-9.20;99.90
48744;DHT22;34538;48.836;9.174;2022-12-18T01:06:27;-9.30;99.90
48744;DHT22;34538;48.836;9.174;2022-12-18T01:08:54;-9.30;99.90
48744;DHT22;34538;48.836;9.174;2022-12-18T01:11:21;-9.30;99.90
48744;DHT22;34538;48.836;9.174;2022-12-18T01:13:51;-9.30;99.90
48744;DHT22;34538;48.836;9.174;2022-12-18T01:16:18;-9.30;99.90
48744;DHT22;34538;48.836;9.174;2022-12-18T01:18:45;-9.30;99.90
48744;DHT22;34538;48.836;9.174;2022-12-18T01:21:14;-9.30;99.90
48744;DHT22;34538;48.836;9.174;2022-12-18T01:23:41;-9.30;99.90
48744;DHT22;34538;48.836;9.174;2022-12-18T01:26:13;-9.30;99.90
48744;DHT22;34538;48.836;9.174;2022-12-18T01:28:40;-9.30;99.90
48744;DHT22;34538;48.836;9.174;2022-12-18T01:31:16;-9.30;99.90
48744;DHT22;34538;48.836;9.174;2022-12-18T01:33:44;-9.30;99.90
48744;DHT22;34538;48.836;9.174;2022-12-18T01:36:18;-9.30;99.90
48744;DHT22;34538;48.836;9.174;2022-12-18T01:38:45;-9.30;99.90
48744;DHT22;34538;48.836;9.174;2022-12-18T01:41:13;-9.30;99.90
48744;DHT22;34538;48.836;9.174;2022-12-18T01:43:45;-9.30;99.90
48744;DHT22;34538;48.836;9.174;2022-12-18T01:46:15;-9.30;99.90
48744;DHT22;34538;48.836;9.174;2022-12-18T01:48:43;-9.40;99.90
48744;DHT22;34538;48.836;9.174;2022-12-18T01:51:11;-9.30;99.90
48744;DHT22;34538;48.836;9.174;2022-12-18T01:53:40;-9.30;99.90
48744;DHT22;34538;48.836;9.174;2022-12-18T01:56:11;-9.40;99.90
48744;DHT22;34538;48.836;9.174;2022-12-18T01:58:44;-9.40;99.90
48744;DHT22;34538;48.836;9.174;2022-12-18T02:01:13;-9.40;99.90
48744;DHT22;34538;48.836;9.174;2022-12-18T02:03:41;-9.30;99.90
48744;DHT22;34538;48.836;9.174;2022-12-18T02:06:13;-9.30;99.90
48744;DHT22;34538;48.836;9.174;2022-12-18T02:08:50;-9.30;99.90
48744;DHT22;34538;48.836;9.174;2022-12-18T02:11:27;-9.30;99.90
48744;DHT22;34538;48.836;9.174;2022-12-18T02:14:04;-9.40;99.90
48744;DHT22;34538;48.836;9.174;2022-12-18T02:16:39;-9.30;99.90
48744;DHT22;34538;48.836;9.174;2022-12-18T02:19:19;-9.30;99.90
48744;DHT22;34538;48.836;9.174;2022-12-18T02:21:54;-9.20;99.90
48744;DHT22;34538;48.836;9.174;2022-12-18T02:24:29;-9.20;99.90
48744;DHT22;34538;48.836;9.174;2022-12-18T02:27:00;-9.10;99.90
48744;DHT22;34538;48.836;9.174;2022-12-18T02:29:34;-9.10;99.90
48744;DHT22;34538;48.836;9.174;2022-12-18T02:32:05;-9.10;99.90
48744;DHT22;34538;48.836;9.174;2022-12-18T02:34:38;-9.00;99.90
48744;DHT22;34538;48.836;9.174;2022-12-18T02:37:12;-9.00;99.90
48744;DHT22;34538;48.836;9.174;2022-12-18T02:39:42;-8.90;99.90
48744;DHT22;34538;48.836;9.174;2022-12-18T02:42:13;-8.90;99.90
48744;DHT22;34538;48.836;9.174;2022-12-18T02:44:45;-8.80;99.90
48744;DHT22;34538;48.836;9.174;2022-12-18T02:47:18;-8.80;99.90
48744;DHT22;34538;48.836;9.174;2022-12-18T02:49:55;-8.70;99.90
48744;DHT22;34538;48.836;9.174;2022-12-18T02:52:33;-8.70;99.90
48744;DHT22;34538;48.836;9.174;2022-12-18T02:55:15;-8.60;99.90
48744;DHT22;34538;48.836;9.174;2022-12-18T02:57:50;-8.70;99.90
48744;DHT22;34538;48.836;9.174;2022-12-18T03:00:30;-8.60;99.90
48744;DHT22;34538;48.836;9.174;2022-12-18T03:03:03;-8.60;99.90
48744;DHT22;34538;48.836;9.174;2022-12-18T03:05:36;-8.60;99.90
48744;DHT22;34538;48.836;9.174;2022-12-18T03:08:06;-8.50;99.90
48744;DHT22;34538;48.836;9.174;2022-12-18T03:10:41;-8.50;99.90
48744;DHT22;34538;48.836;9.174;2022-12-18T03:13:13;-8.50;99.90
48744;DHT22;34538;48.836;9.174;2022-12-18T03:15:46;-8.50;99.90
48744;DHT22;34538;48.836;9.174;2022-12-18T03:18:16;-8.40;99.90
48744;DHT22;34538;48.836;9.174;2022-12-18T03:20:45;-8.40;99.90
48744;DHT22;34538;48.836;9.174;2022-12-18T03:23:22;-8.40;99.90
48744;DHT22;34538;48.836;9.174;2022-12-18T03:25:54;-8.30;99.90
48744;DHT22;34538;48.836;9.174;2022-12-18T03:28:27;-8.30;99.90
48744;DHT22;34538;48.836;9.174;2022-12-18T03:31:01;-8.30;99.90
48744;DHT22;34538;48.836;9.174;2022-12-18T03:33:32;-8.30;99.90
48744;DHT22;34538;48.836;9.174;2022-12-18T03:36:01;-8.30;99.90
48744;DHT22;34538;48.836;9.174;2022-12-18T03:38:28;-8.30;99.90
48744;DHT22;34538;48.836;9.174;2022-12-18T03:41:00;-8.30;99.90
48744;DHT22;34538;48.836;9.174;2022-12-18T03:43:43;-8.30;99.90
48744;DHT22;34538;48.836;9.174;2022-12-18T03:46:17;-8.30;99.90
48744;DHT22;34538;48.836;9.174;2022-12-18T03:48:52;-8.30;99.90
48744;DHT22;34538;48.836;9.174;2022-12-18T03:51:26;-8.30;99.90
48744;DHT22;34538;48.836;9.174;2022-12-18T03:53:59;-8.30;99.90
48744;DHT22;34538;48.836;9.174;2022-12-18T03:56:33;-8.30;99.90
48744;DHT22;34538;48.836;9.174;2022-12-18T03:59:08;-8.30;99.90
48744;DHT22;34538;48.836;9.174;2022-12-18T04:01:39;-8.30;99.90
48744;DHT22;34538;48.836;9.174;2022-12-18T04:04:10;-8.30;99.90
48744;DHT22;34538;48.836;9.174;2022-12-18T04:06:41;-8.30;99.90
48744;DHT22;34538;48.836;9.174;2022-12-18T04:09:10;-8.30;99.90
48744;DHT22;34538;48.836;9.174;2022-12-18T04:11:42;-8.30;99.90
48744;DHT22;34538;48.836;9.174;2022-12-18T04:14:12;-8.20;99.90
48744;DHT22;34538;48.836;9.174;2022-12-18T04:16:39;-8.20;99.90
48744;DHT22;34538;48.836;9.174;2022-12-18T04:19:09;-8.20;99.90
48744;DHT22;34538;48.836;9.174;2022-12-18T04:21:40;-8.10;99.90
48744;DHT22;34538;48.836;9.174;2022-12-18T04:24:09;-8.00;99.90
48744;DHT22;34538;48.836;9.174;2022-12-18T04:26:41;-8.00;99.90
48744;DHT22;34538;48.836;9.174;2022-12-18T04:29:15;-8.00;99.90
48744;DHT22;34538;48.836;9.174;2022-12-18T04:31:42;-7.90;99.90
48744;DHT22;34538;48.836;9.174;2022-12-18T04:34:09;-7.80;99.90
48744;DHT22;34538;48.836;9.174;2022-12-18T04:36:42;-7.80;99.90
48744;DHT22;34538;48.836;9.174;2022-12-18T04:39:09;-7.70;99.90
48744;DHT22;34538;48.836;9.174;2022-12-18T04:41:36;-7.70;99.90
48744;DHT22;34538;48.836;9.174;2022-12-18T04:44:04;-7.70;99.90
48744;DHT22;34538;48.836;9.174;2022-12-18T04:46:32;-7.60;99.90
48744;DHT22;34538;48.836;9.174;2022-12-18T04:48:59;-7.60;99.90
48744;DHT22;34538;48.836;9.174;2022-12-18T04:51:26;-7.60;99.90
48744;DHT22;34538;48.836;9.174;2022-12-18T04:53:53;-7.60;99.90
48744;DHT22;34538;48.836;9.174;2022-12-18T04:56:20;-7.60;99.90
48744;DHT22;34538;48.836;9.174;2022-12-18T04:58:47;-7.50;99.90
48744;DHT22;34538;48.836;9.174;2022-12-18T05:01:15;-7.60;99.90
48744;DHT22;34538;48.836;9.174;2022-12-18T05:03:44;-7.60;99.90
48744;DHT22;34538;48.836;9.174;2022-12-18T05:06:11;-7.60;99.90
48744;DHT22;34538;48.836;9.174;2022-12-18T05:08:38;-7.60;99.90
48744;DHT22;34538;48.836;9.174;2022-12-18T05:11:06;-7.60;99.90
48744;DHT22;34538;48.836;9.174;2022-12-18T05:13:34;-7.70;99.90
48744;DHT22;34538;48.836;9.174;2022-12-18T05:16:02;-7.70;99.90
48744;DHT22;34538;48.836;9.174;2022-12-18T05:18:29;-7.70;99.90
48744;DHT22;34538;48.836;9.174;2022-12-18T05:20:57;-7.80;99.90
48744;DHT22;34538;48.836;9.174;2022-12-18T05:23:25;-7.80;99.90
48744;DHT22;34538;48.836;9.174;2022-12-18T05:25:52;-7.80;99.90
48744;DHT22;34538;48.836;9.174;2022-12-18T05:28:20;-7.80;99.90
48744;DHT22;34538;48.836;9.174;2022-12-18T05:30:48;-7.80;99.90
48744;DHT22;34538;48.836;9.174;2022-12-18T05:33:16;-7.80;99.90
48744;DHT22;34538;48.836;9.174;2022-12-18T05:35:43;-7.80;99.90
48744;DHT22;34538;48.836;9.174;2022-12-18T05:38:11;-7.80;99.90
48744;DHT22;34538;48.836;9.174;2022-12-18T05:40:41;-7.80;99.90
48744;DHT22;34538;48.836;9.174;2022-12-18T05:43:08;-7.80;99.90
48744;DHT22;34538;48.836;9.174;2022-12-18T05:45:36;-7.80;99.90
48744;DHT22;34538;48.836;9.174;2022-12-18T05:48:04;-7.80;99.90
48744;DHT22;34538;48.836;9.174;2022-12-18T05:50:33;-7.80;99.90
48744;DHT22;34538;48.836;9.174;2022-12-18T05:53:01;-7.80;99.90
48744;DHT22;34538;48.836;9.174;2022-12-18T05:55:32;-7.90;99.90
48744;DHT22;34538;48.836;9.174;2022-12-18T05:57:59;-7.90;99.90
48744;DHT22;34538;48.836;9.174;2022-12-18T06:00:25;-7.90;99.90
48744;DHT22;34538;48.836;9.174;2022-12-18T06:02:52;-8.00;99.90
48744;DHT22;34538;48.836;9.174;2022-12-18T06:05:19;-8.00;99.90
48744;DHT22;34538;48.836;9.174;2022-12-18T06:07:46;-8.00;99.90
48744;DHT22;34538;48.836;9.174;2022-12-18T06:10:13;-8.00;99.90
48744;DHT22;34538;48.836;9.174;2022-12-18T06:12:41;-8.10;99.90
48744;DHT22;34538;48.836;9.174;2022-12-18T06:15:09;-8.10;99.90
48744;DHT22;34538;48.836;9.174;2022-12-18T06:17:36;-8.20;99.90
48744;DHT22;34538;48.836;9.174;2022-12-18T06:20:04;-8.20;99.90
48744;DHT22;34538;48.836;9.174;2022-12-18T06:22:32;-8.30;99.90
48744;DHT22;34538;48.836;9.174;2022-12-18T06:24:59;-8.30;99.90
48744;DHT22;34538;48.836;9.174;2022-12-18T06:27:25;-8.40;99.90
48744;DHT22;34538;48.836;9.174;2022-12-18T06:29:54;-8.50;99.90
48744;DHT22;34538;48.836;9.174;2022-12-18T06:32:21;-8.50;99.90
48744;DHT22;34538;48.836;9.174;2022-12-18T06:34:48;-8.60;99.90
48744;DHT22;34538;48.836;9.174;2022-12-18T06:37:14;-8.70;99.90
48744;DHT22;34538;48.836;9.174;2022-12-18T06:39:41;-8.70;99.90
48744;DHT22;34538;48.836;9.174;2022-12-18T06:42:08;-8.80;99.90
48744;DHT22;34538;48.836;9.174;2022-12-18T06:44:35;-8.80;99.90
48744;DHT22;34538;48.836;9.174;2022-12-18T06:47:03;-8.90;99.90
48744;DHT22;34538;48.836;9.174;2022-12-18T06:49:30;-8.90;99.90
48744;DHT22;34538;48.836;9.174;2022-12-18T06:51:57;-8.90;99.90
48744;DHT22;34538;48.836;9.174;2022-12-18T06:54:24;-9.00;99.90
48744;DHT22;34538;48.836;9.174;2022-12-18T06:56:51;-9.00;99.90
48744;DHT22;34538;48.836;9.174;2022-12-18T06:59:18;-9.10;99.90
48744;DHT22;34538;48.836;9.174;2022-12-18T07:01:45;-9.10;99.90
48744;DHT22;34538;48.836;9.174;2022-12-18T07:04:13;-9.10;99.90
48744;DHT22;34538;48.836;9.174;2022-12-18T07:06:40;-9.10;99.90
48744;DHT22;34538;48.836;9.174;2022-12-18T07:09:07;-9.20;99.90
48744;DHT22;34538;48.836;9.174;2022-12-18T07:11:33;-9.20;99.90
48744;DHT22;34538;48.836;9.174;2022-12-18T07:14:00;-9.20;99.90
48744;DHT22;34538;48.836;9.174;2022-12-18T07:16:27;-9.20;99.90
48744;DHT22;34538;48.836;9.174;2022-12-18T07:18:55;-9.30;99.90
48744;DHT22;34538;48.836;9.174;2022-12-18T07:21:24;-9.30;99.90
48744;DHT22;34538;48.836;9.174;2022-12-18T07:23:51;-9.30;99.90
48744;DHT22;34538;48.836;9.174;2022-12-18T07:26:20;-9.30;99.90
48744;DHT22;34538;48.836;9.174;2022-12-18T07:28:47;-9.30;99.90
48744;DHT22;34538;48.836;9.174;2022-12-18T07:31:16;-9.30;99.90
48744;DHT22;34538;48.836;9.174;2022-12-18T07:33:44;-9.30;99.90
48744;DHT22;34538;48.836;9.174;2022-12-18T07:36:12;-9.30;99.90
48744;DHT22;34538;48.836;9.174;2022-12-18T07:38:40;-9.30;99.90
48744;DHT22;34538;48.836;9.174;2022-12-18T07:41:09;-9.30;99.90
48744;DHT22;34538;48.836;9.174;2022-12-18T07:43:37;-9.30;99.90
48744;DHT22;34538;48.836;9.174;2022-12-18T07:46:05;-9.30;99.90
48744;DHT22;34538;48.836;9.174;2022-12-18T07:48:32;-9.30;99.90
48744;DHT22;34538;48.836;9.174;2022-12-18T07:50:59;-9.30;99.90
48744;DHT22;34538;48.836;9.174;2022-12-18T07:53:26;-9.30;99.90
48744;DHT22;34538;48.836;9.174;2022-12-18T07:55:56;-9.30;99.90
48744;DHT22;34538;48.836;9.174;2022-12-18T07:58:23;-9.20;99.90
48744;DHT22;34538;48.836;9.174;2022-12-18T08:00:50;-9.20;99.90
48744;DHT22;34538;48.836;9.174;2022-12-18T08:03:17;-9.20;99.90
48744;DHT22;34538;48.836;9.174;2022-12-18T08:05:44;-9.10;99.90
48744;DHT22;34538;48.836;9.174;2022-12-18T08:08:14;-9.10;99.90
48744;DHT22;34538;48.836;9.174;2022-12-18T08:10:41;-9.00;99.90
48744;DHT22;34538;48.836;9.174;2022-12-18T08:13:09;-8.90;99.90
48744;DHT22;34538;48.836;9.174;2022-12-18T08:15:36;-8.90;99.90
48744;DHT22;34538;48.836;9.174;2022-12-18T08:18:03;-8.80;99.90
48744;DHT22;34538;48.836;9.174;2022-12-18T08:20:30;-8.70;99.90
48744;DHT22;34538;48.836;9.174;2022-12-18T08:22:57;-8.60;99.90
48744;DHT22;34538;48.836;9.174;2022-12-18T08:25:24;-8.50;99.90
48744;DHT22;34538;48.836;9.174;2022-12-18T08:27:51;-8.40;99.90
48744;DHT22;34538;48.836;9.174;2022-12-18T08:30:19;-8.30;99.90
48744;DHT22;34538;48.836;9.174;2022-12-18T08:32:46;-8.30;99.90
48744;DHT22;34538;48.836;9.174;2022-12-18T08:35:14;-8.20;99.90
48744;DHT22;34538;48.836;9.174;2022-12-18T08:37:41;-8.10;99.90
48744;DHT22;34538;48.836;9.174;2022-12-18T08:40:09;-8.00;99.90
48744;DHT22;34538;48.836;9.174;2022-12-18T08:42:36;-7.90;99.90
48744;DHT22;34538;48.836;9.174;2022-12-18T08:45:22;-7.80;99.90
48744;DHT22;34538;48.836;9.174;2022-12-18T08:47:50;-7.80;99.90
48744;DHT22;34538;48.836;9.174;2022-12-18T08:50:17;-7.70;99.90
48744;DHT22;34538;48.836;9.174;2022-12-18T08:52:44;-7.60;99.90
48744;DHT22;34538;48.836;9.174;2022-12-18T08:55:11;-7.50;99.90
48744;DHT22;34538;48.836;9.174;2022-12-18T08:57:38;-7.50;99.90
48744;DHT22;34538;48.836;9.174;2022-12-18T09:00:06;-7.40;99.90
48744;DHT22;34538;48.836;9.174;2022-12-18T09:02:34;-7.30;99.90
48744;DHT22;34538;48.836;9.174;2022-12-18T09:05:01;-7.20;99.90
48744;DHT22;34538;48.836;9.174;2022-12-18T09:07:28;-7.20;99.90
48744;DHT22;34538;48.836;9.174;2022-12-18T09:09:55;-7.10;99.90
48744;DHT22;34538;48.836;9.174;2022-12-18T09:12:22;-7.00;99.90
48744;DHT22;34538;48.836;9.174;2022-12-18T09:14:49;-7.00;99.90
48744;DHT22;34538;48.836;9.174;2022-12-18T09:17:16;-6.90;99.90
48744;DHT22;34538;48.836;9.174;2022-12-18T09:19:44;-6.80;99.90
48744;DHT22;34538;48.836;9.174;2022-12-18T09:22:11;-6.70;99.90
48744;DHT22;34538;48.836;9.174;2022-12-18T09:24:48;-6.60;99.90
48744;DHT22;34538;48.836;9.174;2022-12-18T09:27:15;-6.50;99.90
48744;DHT22;34538;48.836;9.174;2022-12-18T09:29:42;-6.40;99.90
48744;DHT22;34538;48.836;9.174;2022-12-18T09:32:09;-6.30;99.90
48744;DHT22;34538;48.836;9.174;2022-12-18T09:34:36;-6.20;99.90
48744;DHT22;34538;48.836;9.174;2022-12-18T09:37:04;-6.10;99.90
48744;DHT22;34538;48.836;9.174;2022-12-18T09:39:31;-6.00;99.90
48744;DHT22;34538;48.836;9.174;2022-12-18T09:41:58;-5.90;99.90
48744;DHT22;34538;48.836;9.174;2022-12-18T09:44:28;-5.90;99.90
48744;DHT22;34538;48.836;9.174;2022-12-18T09:47:09;-5.80;99.90
48744;DHT22;34538;48.836;9.174;2022-12-18T09:49:42;-5.70;99.90
48744;DHT22;34538;48.836;9.174;2022-12-18T09:52:15;-5.70;99.90
48744;DHT22;34538;48.836;9.174;2022-12-18T09:54:46;-5.60;99.90
48744;DHT22;34538;48.836;9.174;2022-12-18T09:57:16;-5.50;99.90
48744;DHT22;34538;48.836;9.174;2022-12-18T09:59:47;-5.50;99.90
48744;DHT22;34538;48.836;9.174;2022-12-18T10:02:18;-5.40;99.90
48744;DHT22;34538;48.836;9.174;2022-12-18T10:04:55;-5.30;99.90
48744;DHT22;34538;48.836;9.174;2022-12-18T10:07:36;-5.20;99.90
48744;DHT22;34538;48.836;9.174;2022-12-18T10:10:12;-5.10;99.90
48744;DHT22;34538;48.836;9.174;2022-12-18T10:12:44;-5.00;99.90
48744;DHT22;34538;48.836;9.174;2022-12-18T10:15:19;-5.00;99.90
48744;DHT22;34538;48.836;9.174;2022-12-18T10:17:53;-4.90;99.90
48744;DHT22;34538;48.836;9.174;2022-12-18T10:20:30;-4.90;99.90
48744;DHT22;34538;48.836;9.174;2022-12-18T10:23:05;-4.80;99.90
48744;DHT22;34538;48.836;9.174;2022-12-18T10:25:43;-4.70;99.90
48744;DHT22;34538;48.836;9.174;2022-12-18T10:28:13;-4.70;99.90
48744;DHT22;34538;48.836;9.174;2022-12-18T10:30:41;-4.60;99.90
48744;DHT22;34538;48.836;9.174;2022-12-18T10:33:11;-4.60;99.90
48744;DHT22;34538;48.836;9.174;2022-12-18T10:35:41;-4.50;99.90
48744;DHT22;34538;48.836;9.174;2022-12-18T10:38:24;-4.40;99.90
48744;DHT22;34538;48.836;9.174;2022-12-18T10:40:53;-4.30;99.90
48744;DHT22;34538;48.836;9.174;2022-12-18T10:43:24;-4.30;99.90
48744;DHT22;34538;48.836;9.174;2022-12-18T10:46:12;-4.20;99.90
48744;DHT22;34538;48.836;9.174;2022-12-18T10:48:49;-4.10;99.90
48744;DHT22;34538;48.836;9.174;2022-12-18T10:51:22;-4.00;99.90
48744;DHT22;34538;48.836;9.174;2022-12-18T10:53:55;-4.00;99.90
48744;DHT22;34538;48.836;9.174;2022-12-18T10:56:24;-3.90;99.90
48744;DHT22;34538;48.836;9.174;2022-12-18T10:58:57;-3.80;99.90
48744;DHT22;34538;48.836;9.174;2022-12-18T11:01:24;-3.70;99.90
48744;DHT22;34538;48.836;9.174;2022-12-18T11:04:01;-3.60;99.90
48744;DHT22;34538;48.836;9.174;2022-12-18T11:06:29;-3.50;99.90
48744;DHT22;34538;48.836;9.174;2022-12-18T11:09:02;-3.50;99.90
48744;DHT22;34538;48.836;9.174;2022-12-18T11:11:29;-3.40;99.90
48744;DHT22;34538;48.836;9.174;2022-12-18T11:14:02;-3.30;99.90
48744;DHT22;34538;48.836;9.174;2022-12-18T11:16:33;-3.20;99.90
48744;DHT22;34538;48.836;9.174;2022-12-18T11:19:14;-3.20;99.90
48744;DHT22;34538;48.836;9.174;2022-12-18T11:21:45;-3.10;99.90
48744;DHT22;34538;48.836;9.174;2022-12-18T11:24:20;-3.00;99.90
48744;DHT22;34538;48.836;9.174;2022-12-18T11:26:49;-2.90;99.90
48744;DHT22;34538;48.836;9.174;2022-12-18T11:29:17;-2.90;99.90
48744;DHT22;34538;48.836;9.174;2022-12-18T11:31:44;-2.80;99.90
48744;DHT22;34538;48.836;9.174;2022-12-18T11:34:23;-2.70;99.90
48744;DHT22;34538;48.836;9.174;2022-12-18T11:36:52;-2.70;99.90
48744;DHT22;34538;48.836;9.174;2022-12-18T11:39:27;-2.60;99.90
48744;DHT22;34538;48.836;9.174;2022-12-18T11:42:01;-2.60;99.90
48744;DHT22;34538;48.836;9.174;2022-12-18T11:44:41;-2.60;99.90
48744;DHT22;34538;48.836;9.174;2022-12-18T11:47:15;-2.50;99.90
48744;DHT22;34538;48.836;9.174;2022-12-18T11:49:47;-2.50;99.90
48744;DHT22;34538;48.836;9.174;2022-12-18T11:52:18;-2.40;99.90
48744;DHT22;34538;48.836;9.174;2022-12-18T11:54:51;-2.40;99.90
48744;DHT22;34538;48.836;9.174;2022-12-18T11:57:28;-2.40;99.90
48744;DHT22;34538;48.836;9.174;2022-12-18T12:00:07;-2.40;99.90
48744;DHT22;34538;48.836;9.174;2022-12-18T12:03:02;-2.30;99.90
48744;DHT22;34538;48.836;9.174;2022-12-18T12:05:45;-2.30;99.90
48744;DHT22;34538;48.836;9.174;2022-12-18T12:08:26;-2.20;99.90
48744;DHT22;34538;48.836;9.174;2022-12-18T12:11:02;-2.20;99.90
48744;DHT22;34538;48.836;9.174;2022-12-18T12:13:38;-2.20;99.90
48744;DHT22;34538;48.836;9.174;2022-12-18T12:16:15;-2.10;99.90
48744;DHT22;34538;48.836;9.174;2022-12-18T12:21:37;-2.10;99.90
48744;DHT22;34538;48.836;9.174;2022-12-18T12:24:18;-2.10;99.90
48744;DHT22;34538;48.836;9.174;2022-12-18T12:26:57;-2.00;99.90
48744;DHT22;34538;48.836;9.174;2022-12-18T12:29:41;-1.90;99.90
48744;DHT22;34538;48.836;9.174;2022-12-18T12:32:22;-1.90;99.90
48744;DHT22;34538;48.836;9.174;2022-12-18T12:35:02;-1.80;99.90
48744;DHT22;34538;48.836;9.174;2022-12-18T12:37:38;-1.80;99.90
48744;DHT22;34538;48.836;9.174;2022-12-18T12:40:07;-1.70;99.90
48744;DHT22;34538;48.836;9.174;2022-12-18T12:42:42;-1.70;99.90
48744;DHT22;34538;48.836;9.174;2022-12-18T12:45:37;-1.70;99.90
48744;DHT22;34538;48.836;9.174;2022-12-18T12:48:10;-1.60;99.90
48744;DHT22;34538;48.836;9.174;2022-12-18T12:50:38;-1.60;99.90
48744;DHT22;34538;48.836;9.174;2022-12-18T12:53:09;-1.60;99.90
48744;DHT22;34538;48.836;9.174;2022-12-18T12:55:42;-1.50;99.90
48744;DHT22;34538;48.836;9.174;2022-12-18T12:58:15;-1.50;99.90
48744;DHT22;34538;48.836;9.174;2022-12-18T13:00:49;-1.40;99.90
48744;DHT22;34538;48.836;9.174;2022-12-18T13:03:30;-1.40;99.90
48744;DHT22;34538;48.836;9.174;2022-12-18T13:06:07;-1.40;99.90
48744;DHT22;34538;48.836;9.174;2022-12-18T13:08:53;-1.30;99.90
48744;DHT22;34538;48.836;9.174;2022-12-18T13:11:30;-1.30;99.90
48744;DHT22;34538;48.836;9.174;2022-12-18T13:14:23;-1.30;99.90
48744;DHT22;34538;48.836;9.174;2022-12-18T13:16:50;-1.20;99.90
48744;DHT22;34538;48.836;9.174;2022-12-18T13:19:24;-1.20;99.90
48744;DHT22;34538;48.836;9.174;2022-12-18T13:21:54;-1.20;99.90
48744;DHT22;34538;48.836;9.174;2022-12-18T13:24:25;-1.10;99.90
48744;DHT22;34538;48.836;9.174;2022-12-18T13:26:52;-1.10;99.90
48744;DHT22;34538;48.836;9.174;2022-12-18T13:32:23;-1.10;99.90
48744;DHT22;34538;48.836;9.174;2022-12-18T13:37:54;-1.00;99.90
48744;DHT22;34538;48.836;9.174;2022-12-18T13:40:55;-0.90;99.90
48744;DHT22;34538;48.836;9.174;2022-12-18T13:43:27;-0.90;99.90
48744;DHT22;34538;48.836;9.174;2022-12-18T13:46:02;-0.90;99.90
48744;DHT22;34538;48.836;9.174;2022-12-18T13:48:33;-0.90;99.90
48744;DHT22;34538;48.836;9.174;2022-12-18T13:51:04;-0.90;99.90
48744;DHT22;34538;48.836;9.174;2022-12-18T13:53:35;-0.80;99.90
48744;DHT22;34538;48.836;9.174;2022-12-18T13:56:03;-0.80;99.90
48744;DHT22;34538;48.836;9.174;2022-12-18T13:58:31;-0.90;99.90
48744;DHT22;34538;48.836;9.174;2022-12-18T14:00:58;-0.80;99.90
48744;DHT22;34538;48.836;9.174;2022-12-18T14:03:30;-0.80;99.90
48744;DHT22;34538;48.836;9.174;2022-12-18T14:06:03;-0.80;99.90
48744;DHT22;34538;48.836;9.174;2022-12-18T14:08:39;-0.90;99.90
48744;DHT22;34538;48.836;9.174;2022-12-18T14:11:07;-0.90;99.90
48744;DHT22;34538;48.836;9.174;2022-12-18T14:13:44;-0.90;99.90
48744;DHT22;34538;48.836;9.174;2022-12-18T14:16:14;-0.90;99.90
48744;DHT22;34538;48.836;9.174;2022-12-18T14:18:45;-0.90;99.90
48744;DHT22;34538;48.836;9.174;2022-12-18T14:21:20;-1.00;99.90
48744;DHT22;34538;48.836;9.174;2022-12-18T14:23:47;-1.00;99.90
48744;DHT22;34538;48.836;9.174;2022-12-18T14:26:22;-1.00;99.90
48744;DHT22;34538;48.836;9.174;2022-12-18T14:28:50;-1.00;99.90
48744;DHT22;34538;48.836;9.174;2022-12-18T14:31:18;-1.10;99.90
48744;DHT22;34538;48.836;9.174;2022-12-18T14:33:47;-1.10;99.90
48744;DHT22;34538;48.836;9.174;2022-12-18T14:36:16;-1.10;99.90
48744;DHT22;34538;48.836;9.174;2022-12-18T14:38:48;-1.10;99.90
48744;DHT22;34538;48.836;9.174;2022-12-18T14:41:17;-1.10;99.90
48744;DHT22;34538;48.836;9.174;2022-12-18T14:43:46;-1.20;99.90
48744;DHT22;34538;48.836;9.174;2022-12-18T14:46:29;-1.20;99.90
48744;DHT22;34538;48.836;9.174;2022-12-18T14:49:01;-1.30;99.90
48744;DHT22;34538;48.836;9.174;2022-12-18T14:51:30;-1.30;99.90
48744;DHT22;34538;48.836;9.174;2022-12-18T14:53:59;-1.30;99.90
48744;DHT22;34538;48.836;9.174;2022-12-18T14:56:28;-1.40;99.90
48744;DHT22;34538;48.836;9.174;2022-12-18T14:58:56;-1.40;99.90
48744;DHT22;34538;48.836;9.174;2022-12-18T15:01:27;-1.50;99.90
48744;DHT22;34538;48.836;9.174;2022-12-18T15:03:55;-1.50;99.90
48744;DHT22;34538;48.836;9.174;2022-12-18T15:06:32;-1.50;99.90
48744;DHT22;34538;48.836;9.174;2022-12-18T15:09:02;-1.50;99.90
48744;DHT22;34538;48.836;9.174;2022-12-18T15:11:35;-1.60;99.90
48744;DHT22;34538;48.836;9.174;2022-12-18T15:14:30;-1.60;99.90
48744;DHT22;34538;48.836;9.174;2022-12-18T15:16:58;-1.70;99.90
48744;DHT22;34538;48.836;9.174;2022-12-18T15:19:33;-1.80;99.90
48744;DHT22;34538;48.836;9.174;2022-12-18T15:22:03;-1.80;99.90
48744;DHT22;34538;48.836;9.174;2022-12-18T15:24:31;-1.80;99.90
48744;DHT22;34538;48.836;9.174;2022-12-18T15:26:59;-1.90;99.90
48744;DHT22;34538;48.836;9.174;2022-12-18T15:29:26;-1.90;99.90
48744;DHT22;34538;48.836;9.174;2022-12-18T15:32:02;-2.00;99.90
48744;DHT22;34538;48.836;9.174;2022-12-18T15:34:29;-2.00;99.90
48744;DHT22;34538;48.836;9.174;2022-12-18T15:36:56;-2.10;99.90
48744;DHT22;34538;48.836;9.174;2022-12-18T15:39:24;-2.10;99.90
48744;DHT22;34538;48.836;9.174;2022-12-18T15:41:51;-2.10;99.90
48744;DHT22;34538;48.836;9.174;2022-12-18T15:44:36;-2.10;99.90
48744;DHT22;34538;48.836;9.174;2022-12-18T15:47:04;-2.20;99.90
48744;DHT22;34538;48.836;9.174;2022-12-18T15:49:34;-2.30;99.90
48744;DHT22;34538;48.836;9.174;2022-12-18T15:52:02;-2.30;99.90
48744;DHT22;34538;48.836;9.174;2022-12-18T15:54:31;-2.30;99.90
48744;DHT22;34538;48.836;9.174;2022-12-18T15:57:15;-2.30;99.90
48744;DHT22;34538;48.836;9.174;2022-12-18T15:59:53;-2.40;99.90
48744;DHT22;34538;48.836;9.174;2022-12-18T16:02:22;-2.40;99.90